Terminal Aerodrome Forecast
Issued by NWS

Home | Current Version | Previous Version | Graphics & Text | Print | Product List | Glossary On
Versions: 1 2 3 4 5 6 7 8 9 10 11 12 13 14 15 16 17
000
FTUS43 KBIS 152300
TAFMOT
TAF
KMOT 152339Z 1600/1624 24015G19KT P6SM SKC
     FM160200 30014G19KT P6SM SCT060
     FM160500 34015G20KT P6SM SCT050 BKN080
     FM161100 33011KT P6SM SCT090
     FM161400 35011KT P6SM SCT180
     FM161800 32009KT P6SM SKC=

USA.gov is the U.S. government's official web portal to all federal, state and local government web resources and services.